createdAt,value
2023-08-29T00:00:13.640Z,100119.38
2023-08-29T00:02:42.933Z,100106.88
2023-08-29T00:05:11.524Z,100106.63
2023-08-29T00:07:39.881Z,100112.31
2023-08-29T00:10:08.867Z,100106.75
2023-08-29T00:12:36.557Z,100095.31
2023-08-29T00:15:06.700Z,100092.84
2023-08-29T00:17:34.413Z,100089.56
2023-08-29T00:20:03.664Z,100096.88
2023-08-29T00:22:31.351Z,100094.03
2023-08-29T00:24:59.238Z,100087.91
2023-08-29T00:27:26.915Z,100085.25
2023-08-29T00:29:57.707Z,100089.94
2023-08-29T00:32:26.749Z,100095.44
2023-08-29T00:34:54.595Z,100095.44
2023-08-29T00:37:22.298Z,100084.19
2023-08-29T00:39:50.101Z,100089.88
2023-08-29T00:42:17.786Z,100095.19
2023-08-29T00:44:45.448Z,100087.22
2023-08-29T00:47:14.485Z,100083.75
2023-08-29T00:49:43.502Z,100088.44
2023-08-29T00:52:11.271Z,100078.19
2023-08-29T00:54:39.200Z,100074.28
2023-08-29T00:57:07.280Z,100086.28
2023-08-29T00:59:35.418Z,100084.22
2023-08-29T01:02:05.139Z,100093.38
2023-08-29T01:04:33.031Z,100101.72
2023-08-29T01:07:02.043Z,100106.56
2023-08-29T01:09:29.834Z,100102.28
2023-08-29T01:12:10.779Z,100102.28
2023-08-29T01:14:43.138Z,100106.56
2023-08-29T01:17:14.742Z,100108.88
2023-08-29T01:19:44.602Z,100110.28
2023-08-29T01:22:27.897Z,100115.06
2023-08-29T01:25:00.845Z,100120.63
2023-08-29T01:27:31.681Z,100125.16
2023-08-29T01:30:01.525Z,100131.56
2023-08-29T01:32:29.474Z,100126.50
2023-08-29T01:34:57.739Z,100138.84
2023-08-29T01:37:25.599Z,100136.41
2023-08-29T01:39:53.363Z,100132.38
2023-08-29T01:42:21.091Z,100139.75
2023-08-29T01:44:50.171Z,100134.44
2023-08-29T01:47:17.892Z,100135.09
2023-08-29T01:49:46.381Z,100134.44
2023-08-29T01:52:14.329Z,100139.13
2023-08-29T01:54:42.085Z,100148.31
2023-08-29T01:57:12.458Z,100152.81
2023-08-29T01:59:40.793Z,100156.47
2023-08-29T02:02:10.605Z,100156.28
2023-08-29T02:04:38.592Z,100152.41
2023-08-29T02:07:06.930Z,100153.69
2023-08-29T02:09:34.619Z,100152.28
2023-08-29T02:12:03.775Z,100151.72
2023-08-29T02:14:31.527Z,100152.16
2023-08-29T02:16:59.537Z,100153.44
2023-08-29T02:19:30.072Z,100157.34
2023-08-29T02:21:58.106Z,100154.09
2023-08-29T02:24:26.002Z,100148.41
2023-08-29T02:26:54.070Z,100144.34
2023-08-29T02:29:21.924Z,100144.16
2023-08-29T02:31:49.797Z,100141.94
2023-08-29T02:34:19.117Z,100136.63
2023-08-29T02:36:48.259Z,100124.97
2023-08-29T02:39:15.943Z,100127.41
2023-08-29T02:41:43.614Z,100132.56
2023-08-29T02:44:11.268Z,100130.72
2023-08-29T02:46:39.950Z,100128.69
2023-08-29T02:49:07.982Z,100127.69
2023-08-29T02:51:35.730Z,100128.50
2023-08-29T02:54:05.263Z,100119.69
2023-08-29T02:56:33.014Z,100123.19
2023-08-29T02:59:02.062Z,100122.53
2023-08-29T03:01:29.906Z,100131.53
2023-08-29T03:03:57.659Z,100132.38
2023-08-29T03:06:25.674Z,100130.53
2023-08-29T03:08:53.413Z,100139.56
2023-08-29T03:11:22.431Z,100139.00
2023-08-29T03:13:50.140Z,100131.22
2023-08-29T03:16:20.555Z,100143.75
2023-08-29T03:18:48.584Z,100146.44
2023-08-29T03:21:16.278Z,100143.00
2023-08-29T03:23:44.274Z,100142.19
2023-08-29T03:26:12.402Z,100134.28
2023-08-29T03:28:44.787Z,100122.81
2023-08-29T03:31:13.238Z,100125.91
2023-08-29T03:33:41.209Z,100125.91
2023-08-29T03:36:09.767Z,100121.03
2023-08-29T03:38:38.666Z,100118.59
2023-08-29T03:41:07.116Z,100115.34
2023-08-29T03:43:36.200Z,100111.44
2023-08-29T03:46:06.722Z,100100.78
2023-08-29T03:48:35.432Z,100089.13
2023-08-29T03:51:07.131Z,100079.72
2023-08-29T03:53:35.399Z,100074.59
2023-08-29T03:56:03.613Z,100080.50
2023-08-29T03:58:32.050Z,100078.44
2023-08-29T04:01:00.376Z,100074.75
2023-08-29T04:03:29.727Z,100060.38
2023-08-29T04:05:57.639Z,100064.47
2023-08-29T04:08:25.302Z,100065.28
2023-08-29T04:10:53.535Z,100063.41
2023-08-29T04:13:21.316Z,100059.50
2023-08-29T04:15:50.297Z,100065.41
2023-08-29T04:18:18.736Z,100055.34
2023-08-29T04:20:47.795Z,100059.63
2023-08-29T04:23:15.973Z,100050.41
2023-08-29T04:25:43.662Z,100046.50
2023-08-29T04:28:11.290Z,100048.13
2023-08-29T04:30:38.975Z,100044.22
2023-08-29T04:33:07.999Z,100047.66
2023-08-29T04:35:35.747Z,100051.72
2023-08-29T04:38:05.296Z,100061.09
2023-08-29T04:40:33.241Z,100064.16
2023-08-29T04:43:01.073Z,100067.84
2023-08-29T04:45:28.973Z,100063.53
2023-08-29T04:47:56.752Z,100080.31
2023-08-29T04:50:26.589Z,100073.16
2023-08-29T04:52:54.973Z,100074.38
2023-08-29T04:55:24.200Z,100064.38
2023-08-29T04:57:53.002Z,100070.34
2023-08-29T05:00:21.296Z,100065.66
2023-08-29T05:02:49.102Z,100064.22
2023-08-29T05:05:17.063Z,100071.84
2023-08-29T05:07:46.202Z,100070.59
2023-08-29T05:10:13.883Z,100061.41
2023-08-29T05:12:43.224Z,100067.19
2023-08-29T05:15:11.669Z,100067.59
2023-08-29T05:17:39.488Z,100068.84
2023-08-29T05:20:10.831Z,100060.47
2023-08-29T05:22:38.905Z,100067.84
2023-08-29T05:25:07.790Z,100063.78
2023-08-29T05:27:35.917Z,100070.97
2023-08-29T05:30:06.270Z,100066.91
2023-08-29T05:32:34.196Z,100061.78
2023-08-29T05:35:01.945Z,100064.84
2023-08-29T05:37:29.589Z,100064.28
2023-08-29T05:39:57.308Z,100064.50
2023-08-29T05:42:24.958Z,100056.94
2023-08-29T05:44:52.843Z,100057.34
2023-08-29T05:47:22.144Z,100050.38
2023-08-29T05:49:49.778Z,100056.13
2023-08-29T05:52:17.441Z,100058.19
2023-08-29T05:54:45.178Z,100060.47
2023-08-29T05:57:12.831Z,100069.66
2023-08-29T05:59:40.672Z,100061.28
2023-08-29T06:02:08.326Z,100065.81
2023-08-29T06:04:38.648Z,100060.91
2023-08-29T06:07:07.126Z,100059.28
2023-08-29T06:09:34.845Z,100065.03
2023-08-29T06:12:02.577Z,100062.78
2023-08-29T06:14:30.287Z,100064.63
2023-08-29T06:16:58.144Z,100058.69
2023-08-29T06:19:26.787Z,100055.22
2023-08-29T06:21:55.886Z,100056.22
2023-08-29T06:24:23.651Z,100058.06
2023-08-29T06:26:51.465Z,100066.06
2023-08-29T06:29:19.103Z,100062.38
2023-08-29T06:31:46.767Z,100058.66
2023-08-29T06:34:14.573Z,100060.91
2023-08-29T06:36:42.789Z,100069.53
2023-08-29T06:39:11.814Z,100069.91
2023-08-29T06:41:39.460Z,100065.78
2023-08-29T06:44:08.282Z,100067.19
2023-08-29T06:46:36.143Z,100070.25
2023-08-29T06:49:05.735Z,100066.53
2023-08-29T06:51:33.555Z,100062.00
2023-08-29T06:54:01.413Z,100061.75
2023-08-29T06:56:30.720Z,100059.88
2023-08-29T06:58:59.896Z,100063.56
2023-08-29T07:01:27.820Z,100059.41
2023-08-29T07:03:55.498Z,100059.22
2023-08-29T07:06:23.328Z,100056.09
2023-08-29T07:08:51.024Z,100058.72
2023-08-29T07:11:19.029Z,100062.63
2023-08-29T07:13:48.451Z,100065.25
2023-08-29T07:16:16.140Z,100064.00
2023-08-29T07:18:43.787Z,100066.84
2023-08-29T07:21:11.939Z,100065.97
2023-08-29T07:23:39.571Z,100066.75
2023-08-29T07:26:07.255Z,100066.72
2023-08-29T07:28:34.925Z,100059.47
2023-08-29T07:31:03.999Z,100065.19
2023-08-29T07:33:31.903Z,100069.28
2023-08-29T07:35:59.803Z,100069.84
2023-08-29T07:38:27.495Z,100064.78
2023-08-29T07:40:55.233Z,100077.47
2023-08-29T07:43:23.536Z,100079.88
2023-08-29T07:45:54.097Z,100078.91
2023-08-29T07:48:23.217Z,100075.50
2023-08-29T07:50:50.934Z,100076.84
2023-08-29T07:53:18.623Z,100075.50
2023-08-29T07:55:46.755Z,100075.78
2023-08-29T07:58:14.579Z,100083.03
2023-08-29T08:00:42.272Z,100079.47
2023-08-29T08:03:09.926Z,100089.66
2023-08-29T08:05:39.030Z,100088.97
2023-08-29T08:08:07.451Z,100088.31
2023-08-29T08:10:35.439Z,100092.84
2023-08-29T08:13:04.892Z,100085.63
2023-08-29T08:15:32.567Z,100094.53
2023-08-29T08:18:00.288Z,100096.75
2023-08-29T08:20:28.021Z,100098.88
2023-08-29T08:22:57.033Z,100095.88
2023-08-29T08:25:24.851Z,100108.97
2023-08-29T08:27:52.494Z,100108.53
2023-08-29T08:30:20.422Z,100115.75
2023-08-29T08:32:48.077Z,100116.41
2023-08-29T08:35:15.802Z,100111.53
2023-08-29T08:37:43.464Z,100118.44
2023-08-29T08:40:16.541Z,100103.03
2023-08-29T08:42:45.644Z,100109.47
2023-08-29T08:45:13.516Z,100107.72
2023-08-29T08:47:42.407Z,100112.63
2023-08-29T08:50:11.499Z,100118.69
2023-08-29T08:52:41.725Z,100107.50
2023-08-29T08:55:10.399Z,100111.56
2023-08-29T08:57:39.743Z,100112.44
2023-08-29T09:00:08.858Z,100111.72
2023-08-29T09:02:38.536Z,100107.25
2023-08-29T09:05:09.021Z,100114.28
2023-08-29T09:07:39.553Z,100109.94
2023-08-29T09:10:09.131Z,100114.25
2023-08-29T09:12:37.066Z,100113.78
2023-08-29T09:15:07.227Z,100106.88
2023-08-29T09:17:35.022Z,100111.91
2023-08-29T09:20:06.243Z,100111.03
2023-08-29T09:22:34.733Z,100116.63
2023-08-29T09:25:04.677Z,100114.59
2023-08-29T09:27:41.475Z,100112.69
2023-08-29T09:30:12.985Z,100121.22
2023-08-29T09:32:43.731Z,100119.53
2023-08-29T09:35:14.112Z,100125.97
2023-08-29T09:37:43.529Z,100124.66
2023-08-29T09:40:26.998Z,100127.22
2023-08-29T09:43:01.805Z,100120.19
2023-08-29T09:45:32.896Z,100115.31
2023-08-29T09:48:03.517Z,100120.16
2023-08-29T09:50:32.265Z,100123.44
2023-08-29T09:53:01.689Z,100115.72
2023-08-29T09:55:33.778Z,100112.56
2023-08-29T09:58:06.173Z,100115.09
2023-08-29T10:00:36.881Z,100112.88
2023-08-29T10:03:09.200Z,100113.78
2023-08-29T10:05:38.367Z,100117.63
2023-08-29T10:08:14.110Z,100115.34
2023-08-29T10:10:43.667Z,100107.84
2023-08-29T10:13:12.810Z,100112.66
2023-08-29T10:15:43.536Z,100098.81
2023-08-29T10:18:13.016Z,100091.84
2023-08-29T10:20:45.105Z,100081.97
2023-08-29T10:23:14.660Z,100096.50
2023-08-29T10:25:43.053Z,100095.50
2023-08-29T10:28:12.913Z,100087.81
2023-08-29T10:30:48.199Z,100090.78
2023-08-29T10:33:16.421Z,100084.94
2023-08-29T10:35:44.415Z,100073.72
2023-08-29T10:38:16.261Z,100078.97
2023-08-29T10:40:45.186Z,100078.78
2023-08-29T10:43:20.348Z,100084.53
2023-08-29T10:45:58.072Z,100082.81
2023-08-29T10:48:50.213Z,100077.97
2023-08-29T10:51:23.543Z,100079.91
2023-08-29T10:53:52.480Z,100072.91
2023-08-29T10:56:21.916Z,100079.69
2023-08-29T10:58:49.781Z,100074.81
2023-08-29T11:01:34.592Z,100068.31
2023-08-29T11:04:04.855Z,100070.91
2023-08-29T11:06:54.619Z,100069.97
2023-08-29T11:09:23.886Z,100069.50
2023-08-29T11:12:08.509Z,100068.66
2023-08-29T11:14:52.853Z,100059.13
2023-08-29T11:17:25.171Z,100063.78
2023-08-29T11:19:54.651Z,100063.28
2023-08-29T11:22:26.719Z,100059.31
2023-08-29T11:24:56.599Z,100055.31
2023-08-29T11:27:24.713Z,100052.03
2023-08-29T11:30:05.960Z,100051.47
2023-08-29T11:32:42.693Z,100053.59
2023-08-29T11:35:13.204Z,100052.19
2023-08-29T11:37:40.986Z,100046.16
2023-08-29T11:40:11.408Z,100047.00
2023-08-29T11:43:09.786Z,100041.59
2023-08-29T11:45:49.012Z,100041.13
2023-08-29T11:48:24.843Z,100046.53
2023-08-29T11:50:56.339Z,100035.78
2023-08-29T11:53:25.242Z,100039.94
2023-08-29T11:55:53.331Z,100034.56
2023-08-29T11:58:21.204Z,100038.66
2023-08-29T12:00:51.606Z,100034.34
2023-08-29T12:03:26.177Z,100030.06
2023-08-29T12:05:58.023Z,100023.59
2023-08-29T12:08:36.337Z,100027.44
2023-08-29T12:11:04.556Z,100020.13
2023-08-29T12:13:32.424Z,100026.09
2023-08-29T12:16:00.427Z,100021.22
2023-08-29T12:18:29.892Z,100023.03
2023-08-29T12:21:12.548Z,100021.97
2023-08-29T12:23:40.233Z,100022.78
2023-08-29T12:26:07.867Z,100012.56
2023-08-29T12:28:35.561Z,100010.72
2023-08-29T12:31:03.283Z,100010.44
2023-08-29T12:33:32.352Z,100004.22
2023-08-29T12:36:00.163Z,100007.50
2023-08-29T12:38:28.863Z,100003.47
2023-08-29T12:40:56.631Z,100001.78
2023-08-29T12:43:25.093Z,100003.72
2023-08-29T12:46:00.060Z,100005.59
2023-08-29T12:48:28.632Z,100003.31
2023-08-29T12:50:57.647Z,99998.41
2023-08-29T12:53:25.357Z,99993.25
2023-08-29T12:55:53.307Z,99987.56
2023-08-29T12:58:21.184Z,99985.06
2023-08-29T13:00:49.004Z,99978.69
2023-08-29T13:03:16.809Z,99980.47
2023-08-29T13:05:44.839Z,99977.72
2023-08-29T13:08:16.511Z,99981.94
2023-08-29T13:10:44.250Z,99981.31
2023-08-29T13:13:12.427Z,99977.69
2023-08-29T13:15:50.357Z,99981.06
2023-08-29T13:18:19.796Z,99975.88
2023-08-29T13:20:47.514Z,99969.31
2023-08-29T13:23:16.720Z,99972.78
2023-08-29T13:25:44.643Z,99968.22
2023-08-29T13:28:12.335Z,99965.00
2023-08-29T13:30:40.011Z,99971.38
2023-08-29T13:33:09.092Z,99965.88
2023-08-29T13:35:36.914Z,99968.06
2023-08-29T13:38:05.888Z,99955.19
2023-08-29T13:40:35.903Z,99953.50
2023-08-29T13:43:03.728Z,99958.06
2023-08-29T13:45:31.848Z,99958.28
2023-08-29T13:47:59.732Z,99956.34
2023-08-29T13:50:27.456Z,99955.44
2023-08-29T13:52:56.993Z,99959.16
2023-08-29T13:55:24.698Z,99953.50
2023-08-29T13:57:53.949Z,99957.38
2023-08-29T14:00:22.333Z,99952.50
2023-08-29T14:02:51.401Z,99956.41
2023-08-29T14:05:19.381Z,99956.81
2023-08-29T14:07:47.102Z,99948.78
2023-08-29T14:10:14.790Z,99957.13
2023-08-29T14:12:42.620Z,99950.94
2023-08-29T14:15:11.906Z,99951.16
2023-08-29T14:17:39.740Z,99946.09
2023-08-29T14:20:08.785Z,99950.09
2023-08-29T14:22:36.501Z,99945.97
2023-08-29T14:25:04.288Z,99942.50
2023-08-29T14:27:32.080Z,99941.44
2023-08-29T14:29:59.807Z,99946.38
2023-08-29T14:32:28.976Z,99936.28
2023-08-29T14:34:56.626Z,99944.66
2023-08-29T14:37:24.346Z,99946.31
2023-08-29T14:39:52.020Z,99940.28
2023-08-29T14:42:19.685Z,99941.44
2023-08-29T14:44:47.585Z,99953.06
2023-08-29T14:47:15.303Z,99947.56
2023-08-29T14:49:44.302Z,99945.34
2023-08-29T14:52:11.991Z,99945.88
2023-08-29T14:54:39.613Z,99950.09
2023-08-29T14:57:08.473Z,99942.97
2023-08-29T14:59:36.498Z,99945.41
2023-08-29T15:02:05.374Z,99953.84
2023-08-29T15:04:33.169Z,99949.13
2023-08-29T15:07:03.505Z,99948.72
2023-08-29T15:09:31.274Z,99945.88
2023-08-29T15:11:58.984Z,99952.69
2023-08-29T15:14:26.786Z,99943.41
2023-08-29T15:16:54.569Z,99945.47
2023-08-29T15:19:22.282Z,99949.41
2023-08-29T15:21:50.358Z,99948.63
2023-08-29T15:24:19.787Z,99952.25
2023-08-29T15:26:48.832Z,99948.75
2023-08-29T15:29:18.249Z,99949.25
2023-08-29T15:31:45.972Z,99943.69
2023-08-29T15:34:13.731Z,99955.53
2023-08-29T15:36:41.511Z,99953.66
2023-08-29T15:39:09.181Z,99952.53
2023-08-29T15:41:38.460Z,99949.47
2023-08-29T15:44:06.407Z,99944.69
2023-08-29T15:46:34.170Z,99942.81
2023-08-29T15:49:01.981Z,99947.13
2023-08-29T15:51:29.640Z,99940.16
2023-08-29T15:53:57.329Z,99941.03
2023-08-29T15:56:25.086Z,99941.59
2023-08-29T15:58:54.090Z,99936.31
2023-08-29T16:01:22.374Z,99941.00
2023-08-29T16:03:51.547Z,99935.41
2023-08-29T16:06:19.400Z,99939.59
2023-08-29T16:08:47.069Z,99939.06
2023-08-29T16:11:14.698Z,99948.22
2023-08-29T16:13:42.380Z,99943.00
2023-08-29T16:16:11.573Z,99946.97
2023-08-29T16:18:39.362Z,99946.84
2023-08-29T16:21:07.111Z,99956.97
2023-08-29T16:23:34.908Z,99947.16
2023-08-29T16:26:06.886Z,99957.88
2023-08-29T16:28:35.149Z,99945.19
2023-08-29T16:31:02.842Z,99954.09
2023-08-29T16:33:32.054Z,99948.97
2023-08-29T16:35:59.846Z,99937.22
2023-08-29T16:38:27.530Z,99938.78
2023-08-29T16:40:55.234Z,99943.81
2023-08-29T16:43:22.993Z,99944.31
2023-08-29T16:45:51.497Z,99946.41
2023-08-29T16:48:19.581Z,99928.06
2023-08-29T16:50:51.933Z,99945.22
2023-08-29T16:53:22.476Z,99936.09
2023-08-29T16:55:51.053Z,99937.47
2023-08-29T16:58:18.928Z,99930.97
2023-08-29T17:00:47.014Z,99931.88
2023-08-29T17:03:15.073Z,99931.06
2023-08-29T17:05:43.227Z,99938.28
2023-08-29T17:08:13.974Z,99935.69
2023-08-29T17:10:41.966Z,99931.50
2023-08-29T17:13:10.542Z,99932.84
2023-08-29T17:15:38.283Z,99927.50
2023-08-29T17:18:06.695Z,99932.84
2023-08-29T17:20:34.686Z,99926.56
2023-08-29T17:23:02.471Z,99930.50
2023-08-29T17:25:32.428Z,99937.94
2023-08-29T17:28:00.327Z,99940.59
2023-08-29T17:30:28.389Z,99934.44
2023-08-29T17:32:56.235Z,99928.84
2023-08-29T17:35:23.997Z,99925.34
2023-08-29T17:37:51.698Z,99928.41
2023-08-29T17:40:19.815Z,99932.34
2023-08-29T17:42:48.917Z,99930.13
2023-08-29T17:45:17.088Z,99934.69
2023-08-29T17:47:44.956Z,99937.88
2023-08-29T17:50:13.702Z,99930.97
2023-08-29T17:52:41.467Z,99940.13
2023-08-29T17:55:09.539Z,99933.66
2023-08-29T17:57:37.258Z,99938.75
2023-08-29T18:00:07.658Z,99937.63
2023-08-29T18:02:35.480Z,99941.06
2023-08-29T18:05:03.257Z,99934.38
2023-08-29T18:07:31.259Z,99940.44
2023-08-29T18:10:10.555Z,99943.84
2023-08-29T18:12:39.384Z,99932.44
2023-08-29T18:15:10.248Z,99940.94
2023-08-29T18:17:38.622Z,99948.06
2023-08-29T18:20:07.903Z,99949.56
2023-08-29T18:22:36.124Z,99945.16
2023-08-29T18:25:03.932Z,99951.78
2023-08-29T18:27:31.754Z,99940.38
2023-08-29T18:29:59.507Z,99938.78
2023-08-29T18:32:32.481Z,99935.97
2023-08-29T18:35:00.429Z,99936.44
2023-08-29T18:37:28.282Z,99931.75
2023-08-29T18:39:57.320Z,99928.50
2023-08-29T18:42:25.023Z,99932.44
2023-08-29T18:44:53.314Z,99923.69
2023-08-29T18:47:21.055Z,99931.06
2023-08-29T18:49:50.358Z,99929.47
2023-08-29T18:52:18.117Z,99934.00
2023-08-29T18:54:45.844Z,99936.44
2023-08-29T18:57:13.725Z,99931.16
2023-08-29T18:59:41.564Z,99937.94
2023-08-29T19:02:09.267Z,99937.53
2023-08-29T19:04:37.169Z,99935.69
2023-08-29T19:07:06.437Z,99944.13
2023-08-29T19:09:34.170Z,99933.88
2023-08-29T19:12:01.979Z,99939.59
2023-08-29T19:14:29.638Z,99933.69
2023-08-29T19:16:57.274Z,99933.47
2023-08-29T19:19:24.993Z,99924.25
2023-08-29T19:21:56.198Z,99928.97
2023-08-29T19:24:25.338Z,99932.25
2023-08-29T19:26:53.025Z,99939.00
2023-08-29T19:29:21.052Z,99934.06
2023-08-29T19:31:48.691Z,99924.66
2023-08-29T19:34:16.914Z,99931.81
2023-08-29T19:36:45.539Z,99932.00
2023-08-29T19:39:17.636Z,99933.25
2023-08-29T19:41:46.956Z,99939.00
2023-08-29T19:44:17.127Z,99933.88
2023-08-29T19:46:45.583Z,99932.22
2023-08-29T19:49:13.434Z,99935.13
2023-08-29T19:51:41.283Z,99931.63
2023-08-29T19:54:08.942Z,99929.16
2023-08-29T19:56:36.667Z,99925.69
2023-08-29T19:59:06.843Z,99937.34
2023-08-29T20:01:34.709Z,99933.88
2023-08-29T20:04:02.480Z,99931.41
2023-08-29T20:06:30.209Z,99934.06
2023-08-29T20:08:58.198Z,99926.06
2023-08-29T20:11:25.953Z,99931.41
2023-08-29T20:13:53.631Z,99927.13
2023-08-29T20:16:22.685Z,99925.47
2023-08-29T20:18:50.407Z,99928.34
2023-08-29T20:21:18.141Z,99927.72
2023-08-29T20:24:00.937Z,99933.47
2023-08-29T20:26:30.543Z,99928.53
2023-08-29T20:29:00.193Z,99918.09
2023-08-29T20:31:29.604Z,99922.00
2023-08-29T20:33:57.388Z,99923.22
2023-08-29T20:36:25.623Z,99925.06
2023-08-29T20:38:53.350Z,99932.41
2023-08-29T20:41:21.180Z,99932.63
2023-08-29T20:43:48.957Z,99926.69
2023-08-29T20:46:16.784Z,99926.91
2023-08-29T20:48:50.543Z,99923.81
2023-08-29T20:51:18.882Z,99929.34
2023-08-29T20:53:47.210Z,99924.44
2023-08-29T20:56:14.971Z,99920.56
2023-08-29T20:58:42.654Z,99926.47
2023-08-29T21:01:10.480Z,99923.22
2023-08-29T21:03:38.191Z,99929.53
2023-08-29T21:06:07.506Z,99922.78
2023-08-29T21:08:35.236Z,99916.63
2023-08-29T21:11:05.397Z,99921.13
2023-08-29T21:13:33.065Z,99915.00
2023-08-29T21:16:00.863Z,99919.50
2023-08-29T21:18:28.826Z,99915.81
2023-08-29T21:20:57.551Z,99908.84
2023-08-29T21:23:26.948Z,99911.50
2023-08-29T21:25:55.241Z,99913.16
2023-08-29T21:28:24.592Z,99912.34
2023-08-29T21:30:54.050Z,99915.63
2023-08-29T21:33:22.904Z,99912.13
2023-08-29T21:35:51.645Z,99912.97
2023-08-29T21:38:19.955Z,99907.84
2023-08-29T21:40:49.148Z,99910.50
2023-08-29T21:43:19.531Z,99910.69
2023-08-29T21:45:54.250Z,99914.41
2023-08-29T21:48:23.189Z,99906.63
2023-08-29T21:50:52.684Z,99903.94
2023-08-29T21:53:20.441Z,99903.13
2023-08-29T21:55:49.654Z,99902.31
2023-08-29T21:58:17.646Z,99899.84
2023-08-29T22:00:49.285Z,99895.75
2023-08-29T22:03:17.066Z,99895.16
2023-08-29T22:05:45.201Z,99886.94
2023-08-29T22:08:13.097Z,99893.28
2023-08-29T22:10:40.887Z,99890.00
2023-08-29T22:13:11.015Z,99881.59
2023-08-29T22:15:39.221Z,99878.13
2023-08-29T22:18:08.591Z,99878.13
2023-08-29T22:20:36.590Z,99878.13
2023-08-29T22:23:04.680Z,99874.88
2023-08-29T22:25:32.446Z,99882.22
2023-08-29T22:28:00.172Z,99872.78
2023-08-29T22:30:29.281Z,99865.00
2023-08-29T22:32:57.187Z,99872.38
2023-08-29T22:35:24.910Z,99870.13
2023-08-29T22:37:52.912Z,99871.13
2023-08-29T22:40:20.649Z,99870.53
2023-08-29T22:42:48.375Z,99868.28
2023-08-29T22:45:16.158Z,99865.19
2023-08-29T22:47:45.271Z,99863.31
2023-08-29T22:50:13.022Z,99844.47
2023-08-29T22:52:40.816Z,99853.69
2023-08-29T22:55:10.153Z,99852.44
2023-08-29T22:57:37.880Z,99849.53
2023-08-29T23:00:09.435Z,99853.81
2023-08-29T23:02:37.240Z,99852.78
2023-08-29T23:05:08.033Z,99845.63
2023-08-29T23:07:35.894Z,99859.47
2023-08-29T23:10:04.889Z,99851.47
2023-08-29T23:12:32.615Z,99843.28
2023-08-29T23:15:00.353Z,99849.22
2023-08-29T23:17:28.029Z,99845.28
2023-08-29T23:19:55.976Z,99848.53
2023-08-29T23:22:24.980Z,99843.81
2023-08-29T23:24:52.652Z,99844.41
2023-08-29T23:27:21.098Z,99845.59
2023-08-29T23:29:48.955Z,99844.38
2023-08-29T23:32:18.291Z,99834.94
2023-08-29T23:34:46.385Z,99838.84
2023-08-29T23:37:14.073Z,99841.88
2023-08-29T23:39:43.348Z,99842.06
2023-08-29T23:42:11.772Z,99842.06
2023-08-29T23:44:39.478Z,99845.72
2023-08-29T23:47:07.731Z,99831.84
2023-08-29T23:49:35.393Z,99834.50
2023-08-29T23:52:03.136Z,99831.22
2023-08-29T23:54:30.804Z,99835.50
2023-08-29T23:56:59.960Z,99834.50
2023-08-29T23:59:28.634Z,99832.03
